Time;durP1;ratioP1;P1;durP2;ratioP2;P2;SDS_P1;SDS_P2;PMS_P1;PMS_P2;Temp;Humidity;BMP_temperature;BMP_pressure;BME280_temperature;BME280_humidity;BME280_pressure;Samples;Min_cycle;Max_cycle;Signal;HPM_P1;HPM_P2
2023/05/08 00:01:52;;;;;;;11.32;10.23;;;15.30;99.90;;;;;;4943275;28;20045;-72
2023/05/08 00:04:19;;;;;;;11.15;10.02;;;15.30;99.90;;;;;;4943037;28;20034;-72
2023/05/08 00:06:46;;;;;;;11.88;10.65;;;15.30;99.90;;;;;;4952845;28;20042;-72
2023/05/08 00:09:12;;;;;;;12.05;10.77;;;15.30;99.90;;;;;;4955539;28;20042;-72
2023/05/08 00:11:39;;;;;;;11.60;10.50;;;15.30;99.90;;;;;;4936786;28;21146;-72
2023/05/08 00:14:05;;;;;;;10.68;9.57;;;15.30;99.90;;;;;;4944414;28;20571;-72
2023/05/08 00:16:31;;;;;;;11.65;10.45;;;15.20;99.90;;;;;;4929752;28;20045;-72
2023/05/08 00:18:59;;;;;;;11.27;10.18;;;15.20;99.90;;;;;;4947659;28;21697;-72
2023/05/08 00:21:26;;;;;;;12.48;11.23;;;15.20;99.90;;;;;;4942386;28;20038;-72
2023/05/08 00:23:52;;;;;;;12.30;10.80;;;15.20;99.90;;;;;;4926368;28;20482;-72
2023/05/08 00:26:19;;;;;;;11.63;10.52;;;15.10;99.90;;;;;;4949196;28;20049;-73
2023/05/08 00:28:46;;;;;;;13.52;10.85;;;15.20;99.90;;;;;;4934107;28;20045;-72
2023/05/08 00:31:12;;;;;;;11.73;10.63;;;15.10;99.90;;;;;;4951671;28;20105;-72
2023/05/08 00:33:39;;;;;;;12.35;11.18;;;15.10;99.90;;;;;;4936525;28;20038;-72
2023/05/08 00:36:06;;;;;;;13.63;11.80;;;15.10;99.90;;;;;;4948064;28;20394;-71
2023/05/08 00:38:34;;;;;;;11.85;10.75;;;15.10;99.90;;;;;;4948340;28;20045;-71
2023/05/08 00:41:01;;;;;;;10.85;9.45;;;15.10;99.90;;;;;;4941722;28;20026;-72
2023/05/08 00:43:27;;;;;;;11.75;10.55;;;15.10;99.90;;;;;;4945112;28;20038;-72
2023/05/08 00:45:55;;;;;;;12.45;11.23;;;15.10;99.90;;;;;;4943993;28;20038;-72
2023/05/08 00:48:23;;;;;;;11.98;10.88;;;15.10;99.90;;;;;;4946873;28;20046;-72
2023/05/08 00:50:51;;;;;;;13.43;12.13;;;15.10;99.90;;;;;;4951452;28;20038;-72
2023/05/08 00:53:19;;;;;;;12.40;11.23;;;15.10;99.90;;;;;;4936278;28;20074;-72
2023/05/08 00:55:46;;;;;;;14.63;13.13;;;15.00;99.90;;;;;;4934037;28;20042;-72
2023/05/08 00:58:13;;;;;;;13.98;12.68;;;15.00;99.90;;;;;;4948438;28;20041;-72
2023/05/08 01:00:41;;;;;;;12.98;11.48;;;14.90;99.90;;;;;;4941315;28;21730;-72
2023/05/08 01:03:08;;;;;;;15.52;13.95;;;14.90;99.90;;;;;;4944455;28;20046;-72
2023/05/08 01:05:35;;;;;;;13.45;12.15;;;14.80;99.90;;;;;;4941776;28;20049;-72
2023/05/08 01:08:02;;;;;;;15.38;12.93;;;14.80;99.90;;;;;;4947128;28;20034;-72
2023/05/08 01:10:38;;;;;;;15.13;13.57;;;14.70;99.90;;;;;;4927054;28;20035;-71
2023/05/08 01:13:17;;;;;;;14.88;13.43;;;14.60;99.90;;;;;;4952782;28;20430;-72
2023/05/08 01:15:53;;;;;;;12.38;11.15;;;14.60;99.90;;;;;;4950553;28;20079;-71
2023/05/08 01:18:32;;;;;;;15.93;14.32;;;14.50;99.90;;;;;;4938722;28;20043;-71
2023/05/08 01:21:01;;;;;;;14.55;13.13;;;14.50;99.90;;;;;;4960587;28;20026;-71
2023/05/08 01:23:28;;;;;;;15.07;13.50;;;14.40;99.90;;;;;;4947761;28;20065;-71
2023/05/08 01:26:21;;;;;;;14.65;13.15;;;14.40;99.90;;;;;;4943492;28;20038;-71
2023/05/08 01:29:09;;;;;;;13.20;11.70;;;14.30;99.90;;;;;;4930524;28;20030;-71
2023/05/08 01:31:50;;;;;;;12.60;11.40;;;14.30;99.90;;;;;;4929597;28;20045;-71
2023/05/08 01:34:24;;;;;;;12.65;11.38;;;14.20;99.90;;;;;;4961077;28;20038;-72
2023/05/08 01:36:52;;;;;;;12.18;10.98;;;14.20;99.90;;;;;;4957392;28;20046;-72
2023/05/08 01:39:40;;;;;;;14.05;12.57;;;14.10;99.90;;;;;;4973584;28;20046;-72
2023/05/08 01:42:37;;;;;;;16.25;14.65;;;14.10;99.90;;;;;;4947204;28;20031;-72
2023/05/08 01:45:15;;;;;;;13.23;11.98;;;14.00;99.90;;;;;;4928707;28;20054;-72
2023/05/08 01:47:45;;;;;;;15.05;13.55;;;14.00;99.90;;;;;;4947726;28;20764;-72
2023/05/08 01:50:19;;;;;;;13.60;12.27;;;14.00;99.90;;;;;;4949922;28;21367;-72
2023/05/08 01:52:51;;;;;;;14.65;13.15;;;13.90;99.90;;;;;;4952694;28;20042;-72
2023/05/08 01:55:27;;;;;;;13.15;11.88;;;13.90;99.90;;;;;;4949490;28;20786;-72
2023/05/08 01:57:57;;;;;;;17.27;15.23;;;13.90;99.90;;;;;;4936634;28;20046;-72
2023/05/08 02:00:24;;;;;;;14.70;13.27;;;13.80;99.90;;;;;;4925675;28;20058;-72
2023/05/08 02:02:53;;;;;;;13.88;12.48;;;13.80;99.90;;;;;;4960397;28;20053;-73
2023/05/08 02:05:21;;;;;;;12.90;11.68;;;13.70;99.90;;;;;;4935026;28;20038;-72
2023/05/08 02:07:49;;;;;;;14.95;13.45;;;13.70;99.90;;;;;;4967488;28;20042;-72
2023/05/08 02:10:18;;;;;;;14.55;13.05;;;13.70;99.90;;;;;;4949355;28;20389;-72
2023/05/08 02:12:47;;;;;;;14.75;13.32;;;13.70;99.90;;;;;;4933164;28;20054;-72
2023/05/08 02:15:16;;;;;;;12.82;11.52;;;13.70;99.90;;;;;;4934537;28;20800;-72
2023/05/08 02:17:45;;;;;;;13.82;12.43;;;13.70;99.90;;;;;;4934287;28;20042;-72
2023/05/08 02:20:13;;;;;;;15.43;13.88;;;13.60;99.90;;;;;;4954631;28;21041;-72
2023/05/08 02:22:48;;;;;;;17.98;16.08;;;13.60;99.90;;;;;;4962723;28;20049;-72
2023/05/08 02:25:15;;;;;;;16.10;14.38;;;13.60;99.90;;;;;;4941653;28;20065;-72
2023/05/08 02:27:45;;;;;;;14.40;13.00;;;13.60;99.90;;;;;;4932520;28;20054;-72
2023/05/08 02:30:16;;;;;;;15.02;13.45;;;13.60;99.90;;;;;;4946573;28;20042;-72
2023/05/08 02:32:44;;;;;;;14.35;12.95;;;13.60;99.90;;;;;;4964472;28;20026;-72
2023/05/08 02:35:18;;;;;;;15.35;13.82;;;13.50;99.90;;;;;;4946249;28;20064;-72
2023/05/08 02:37:49;;;;;;;13.93;12.57;;;13.50;99.90;;;;;;4965681;28;20045;-72
2023/05/08 02:40:17;;;;;;;21.17;18.85;;;13.50;99.90;;;;;;4928775;28;20606;-72
2023/05/08 02:42:45;;;;;;;19.30;17.33;;;13.40;99.90;;;;;;4940904;28;20034;-73
2023/05/08 02:45:12;;;;;;;19.73;17.52;;;13.40;99.90;;;;;;4953834;28;20038;-73
2023/05/08 02:47:57;;;;;;;18.75;16.85;;;13.40;99.90;;;;;;4926457;28;20046;-73
2023/05/08 02:50:39;;;;;;;17.63;15.82;;;13.40;99.90;;;;;;4945357;28;21929;-72
2023/05/08 02:53:11;;;;;;;18.15;16.35;;;13.40;99.90;;;;;;4918967;28;20853;-73
2023/05/08 02:55:56;;;;;;;;;;;13.30;99.90;;;;;;4917603;28;20046;-73
2023/05/08 02:58:45;;;;;;;24.10;21.60;;;13.30;99.90;;;;;;4932340;28;20364;-73
2023/05/08 03:01:27;;;;;;;16.75;14.90;;;13.40;99.90;;;;;;4927764;28;21184;-73
2023/05/08 03:04:08;;;;;;;18.30;16.23;;;13.40;99.90;;;;;;4935064;28;20038;-73
2023/05/08 03:06:43;;;;;;;18.05;16.15;;;13.40;99.90;;;;;;4959938;28;20057;-73
2023/05/08 03:09:19;;;;;;;18.92;16.05;;;13.40;99.90;;;;;;4940425;28;20046;-73
2023/05/08 03:11:48;;;;;;;16.50;14.80;;;13.50;99.90;;;;;;4927451;28;20061;-73
2023/05/08 03:14:19;;;;;;;14.57;13.18;;;13.50;99.90;;;;;;4944536;28;20042;-73
2023/05/08 03:16:49;;;;;;;20.63;18.52;;;13.40;99.90;;;;;;4934288;28;20042;-73
2023/05/08 03:19:25;;;;;;;20.88;18.67;;;13.40;99.90;;;;;;4951999;28;20042;-73
2023/05/08 03:21:53;;;;;;;18.10;15.70;;;13.40;99.90;;;;;;4944841;28;20132;-73
2023/05/08 03:24:22;;;;;;;15.80;14.20;;;13.40;99.90;;;;;;4961999;28;20041;-73
2023/05/08 03:26:48;;;;;;;18.05;16.35;;;13.40;99.90;;;;;;4956531;28;20450;-73
2023/05/08 03:29:17;;;;;;;17.73;15.18;;;13.40;99.90;;;;;;4957423;28;20042;-73
2023/05/08 03:31:44;;;;;;;15.80;14.30;;;13.30;99.90;;;;;;4963279;28;20440;-73
2023/05/08 03:34:12;;;;;;;16.58;14.73;;;13.30;99.90;;;;;;4928374;28;20042;-73
2023/05/08 03:36:39;;;;;;;16.98;15.35;;;13.20;99.90;;;;;;4947798;28;20046;-73
2023/05/08 03:39:06;;;;;;;17.05;15.30;;;13.30;99.90;;;;;;4935865;28;20096;-73
2023/05/08 03:41:33;;;;;;;17.90;15.25;;;13.20;99.90;;;;;;4944543;28;20049;-73
2023/05/08 03:44:02;;;;;;;15.38;13.88;;;13.20;99.90;;;;;;4929180;28;20042;-72
2023/05/08 03:46:34;;;;;;;16.33;14.63;;;13.20;99.90;;;;;;4938056;28;20034;-72
2023/05/08 03:49:03;;;;;;;16.07;14.53;;;13.20;99.90;;;;;;4958261;28;20405;-72
2023/05/08 03:51:31;;;;;;;14.30;12.60;;;13.10;99.90;;;;;;4970040;28;20549;-72
2023/05/08 03:53:57;;;;;;;16.85;15.20;;;13.10;99.90;;;;;;4948728;28;20043;-72
2023/05/08 03:56:24;;;;;;;20.42;18.42;;;13.10;99.90;;;;;;4946261;28;20026;-72
2023/05/08 03:59:07;;;;;;;16.13;14.60;;;13.10;99.90;;;;;;4918111;28;20041;-72
2023/05/08 04:01:39;;;;;;;15.57;14.07;;;13.10;99.90;;;;;;4943370;28;20045;-73
2023/05/08 04:04:16;;;;;;;18.23;15.95;;;13.10;99.90;;;;;;4944405;28;20046;-73
2023/05/08 04:07:02;;;;;;;17.92;16.13;;;13.10;99.90;;;;;;4947072;28;20732;-73
2023/05/08 04:10:12;;;;;;;14.77;13.32;;;13.10;99.90;;;;;;4973287;28;21123;-74
2023/05/08 04:12:53;;;;;;;16.50;14.85;;;13.10;99.90;;;;;;4955831;28;20042;-73
2023/05/08 04:15:24;;;;;;;17.63;15.93;;;13.10;99.90;;;;;;4930181;28;20046;-73
2023/05/08 04:17:58;;;;;;;17.90;15.98;;;13.10;99.90;;;;;;4949498;28;20038;-73
2023/05/08 04:20:28;;;;;;;22.25;20.05;;;13.10;99.90;;;;;;4929483;28;20042;-73
2023/05/08 04:22:57;;;;;;;18.42;16.63;;;13.10;99.90;;;;;;4948107;28;20046;-73
2023/05/08 04:25:25;;;;;;;20.65;18.65;;;13.00;99.90;;;;;;4959635;28;20034;-73
2023/05/08 04:27:53;;;;;;;20.65;18.58;;;13.10;99.90;;;;;;4947450;28;20034;-73
2023/05/08 04:30:20;;;;;;;20.10;18.00;;;13.10;99.90;;;;;;4935932;28;20592;-73
2023/05/08 04:32:48;;;;;;;18.50;16.77;;;13.00;99.90;;;;;;4956612;28;20076;-73
2023/05/08 04:35:15;;;;;;;17.45;15.75;;;13.00;99.90;;;;;;4950404;28;20045;-73
2023/05/08 04:37:43;;;;;;;17.30;14.75;;;13.10;99.90;;;;;;4931987;28;21593;-73
2023/05/08 04:40:10;;;;;;;16.85;15.10;;;13.10;99.90;;;;;;4944659;28;20079;-72
2023/05/08 04:42:38;;;;;;;15.60;14.15;;;13.20;99.90;;;;;;4929908;28;20034;-73
2023/05/08 04:45:06;;;;;;;16.15;14.65;;;13.20;99.90;;;;;;4960263;28;21870;-73
2023/05/08 04:47:32;;;;;;;20.00;18.00;;;13.20;99.90;;;;;;4949472;28;20045;-73
2023/05/08 04:50:01;;;;;;;17.40;15.80;;;13.20;99.90;;;;;;4945397;28;21233;-74
2023/05/08 04:52:28;;;;;;;15.25;13.75;;;13.20;99.90;;;;;;4955083;28;20047;-73
2023/05/08 04:54:54;;;;;;;15.90;14.45;;;13.20;99.90;;;;;;4952412;28;20041;-73
2023/05/08 04:57:21;;;;;;;15.60;14.07;;;13.20;99.90;;;;;;4966598;28;20105;-73
2023/05/08 04:59:47;;;;;;;15.05;13.57;;;13.20;99.90;;;;;;4941961;28;20162;-73
2023/05/08 05:02:14;;;;;;;15.20;13.60;;;13.20;99.90;;;;;;4926324;28;20053;-73
2023/05/08 05:04:41;;;;;;;17.65;15.35;;;13.20;99.90;;;;;;4929124;28;20042;-75
2023/05/08 05:07:07;;;;;;;19.00;16.80;;;13.20;99.90;;;;;;4943579;28;20049;-75
2023/05/08 05:09:35;;;;;;;17.65;15.95;;;13.20;99.90;;;;;;4959384;28;20841;-73
2023/05/08 05:12:03;;;;;;;17.50;15.75;;;13.30;99.90;;;;;;4944475;28;20057;-73
2023/05/08 05:14:31;;;;;;;19.35;17.45;;;13.30;99.90;;;;;;4952103;28;20503;-73
2023/05/08 05:16:58;;;;;;;18.50;16.80;;;13.40;99.90;;;;;;4955294;28;20033;-74
2023/05/08 05:19:26;;;;;;;18.67;16.83;;;13.40;99.90;;;;;;4933550;28;20039;-72
2023/05/08 05:21:52;;;;;;;15.27;13.77;;;13.50;99.90;;;;;;4939843;28;20046;-72
2023/05/08 05:24:18;;;;;;;16.27;14.77;;;13.50;99.90;;;;;;4926840;28;20034;-72
2023/05/08 05:26:45;;;;;;;16.02;14.52;;;13.50;99.90;;;;;;4945928;28;20046;-73
2023/05/08 05:29:12;;;;;;;14.77;13.38;;;13.50;99.90;;;;;;4946465;28;20041;-73
2023/05/08 05:31:38;;;;;;;15.32;13.93;;;13.60;99.90;;;;;;4942127;28;20041;-74
2023/05/08 05:34:05;;;;;;;19.20;17.40;;;13.70;99.90;;;;;;4928362;28;20622;-73
2023/05/08 05:36:31;;;;;;;20.13;18.23;;;13.80;99.90;;;;;;4939612;28;20046;-72
2023/05/08 05:38:58;;;;;;;17.75;16.15;;;13.90;99.90;;;;;;4955507;28;20045;-72
2023/05/08 05:41:24;;;;;;;17.48;15.77;;;14.00;99.90;;;;;;4931129;28;20057;-72
2023/05/08 05:43:51;;;;;;;17.73;16.08;;;14.10;99.90;;;;;;4943593;28;20477;-72
2023/05/08 05:46:17;;;;;;;18.75;16.92;;;14.20;99.90;;;;;;4961247;28;20052;-72
2023/05/08 05:48:45;;;;;;;17.98;16.30;;;14.30;99.90;;;;;;4960329;28;20034;-72
2023/05/08 05:51:12;;;;;;;18.63;16.67;;;14.40;99.90;;;;;;4928242;28;20038;-72
2023/05/08 05:53:39;;;;;;;17.65;15.95;;;14.50;99.90;;;;;;4945123;28;20046;-72
2023/05/08 05:56:05;;;;;;;17.95;16.25;;;14.60;99.90;;;;;;4934791;28;20042;-72
2023/05/08 05:58:33;;;;;;;16.23;14.68;;;14.60;99.90;;;;;;4956459;28;20038;-72
2023/05/08 06:01:00;;;;;;;15.15;13.70;;;14.60;99.90;;;;;;4949245;28;20038;-72
2023/05/08 06:03:26;;;;;;;17.30;15.77;;;14.70;99.90;;;;;;4946546;28;20043;-72
2023/05/08 06:05:53;;;;;;;17.02;15.45;;;14.80;99.90;;;;;;4926892;28;20064;-72
2023/05/08 06:08:19;;;;;;;16.70;15.10;;;14.80;99.90;;;;;;4943835;28;20038;-72
2023/05/08 06:10:46;;;;;;;15.98;14.57;;;15.00;99.90;;;;;;4939902;28;20773;-78
2023/05/08 06:13:12;;;;;;;15.68;14.07;;;15.20;99.90;;;;;;4931905;28;20616;-72
2023/05/08 06:15:39;;;;;;;19.40;17.60;;;15.50;99.90;;;;;;4942207;28;20054;-78
2023/05/08 06:18:05;;;;;;;21.00;18.73;;;15.70;99.90;;;;;;4951975;28;20030;-73
2023/05/08 06:20:32;;;;;;;19.60;17.65;;;15.80;99.90;;;;;;4930741;28;20077;-73
2023/05/08 06:22:59;;;;;;;17.98;16.23;;;16.00;99.90;;;;;;4966189;28;20520;-73
2023/05/08 06:25:27;;;;;;;22.42;19.50;;;16.00;99.90;;;;;;4938157;28;20041;-73
2023/05/08 06:27:53;;;;;;;18.48;16.55;;;16.00;99.90;;;;;;4945623;28;20046;-73
2023/05/08 06:30:19;;;;;;;19.08;15.80;;;16.00;99.90;;;;;;4940542;28;20038;-73
2023/05/08 06:32:45;;;;;;;21.55;17.27;;;16.10;99.90;;;;;;4943112;28;20473;-74
2023/05/08 06:35:14;;;;;;;21.88;17.50;;;16.10;99.90;;;;;;4941988;28;20329;-74
2023/05/08 06:37:40;;;;;;;23.23;17.60;;;16.20;99.90;;;;;;4938898;28;20085;-74
2023/05/08 06:40:07;;;;;;;23.83;19.75;;;16.20;99.90;;;;;;4954446;28;20042;-73
2023/05/08 06:42:34;;;;;;;25.58;20.35;;;16.20;99.90;;;;;;4959637;28;20038;-73
2023/05/08 06:45:00;;;;;;;28.63;19.63;;;16.10;99.90;;;;;;4945625;28;20442;-73
2023/05/08 06:47:26;;;;;;;28.65;20.55;;;16.00;99.90;;;;;;4948880;28;20038;-73
2023/05/08 06:49:53;;;;;;;23.00;18.17;;;15.90;99.90;;;;;;4946866;28;20037;-73
2023/05/08 06:52:19;;;;;;;25.85;20.05;;;15.90;99.90;;;;;;4948604;28;20034;-73
2023/05/08 06:54:46;;;;;;;24.85;18.90;;;15.90;99.90;;;;;;4943583;28;20073;-73
2023/05/08 06:57:13;;;;;;;26.65;18.85;;;16.10;99.90;;;;;;4935554;28;20038;-73
2023/05/08 06:59:39;;;;;;;26.77;21.80;;;16.30;99.90;;;;;;4938683;28;20045;-73
2023/05/08 07:02:08;;;;;;;21.30;18.15;;;16.50;99.90;;;;;;4959305;28;20026;-73
2023/05/08 07:04:35;;;;;;;20.05;17.80;;;16.70;99.90;;;;;;4951946;28;20054;-73
2023/05/08 07:07:01;;;;;;;23.98;21.38;;;16.80;99.90;;;;;;4949369;28;20049;-74
2023/05/08 07:09:28;;;;;;;24.45;20.20;;;16.90;99.90;;;;;;4934879;28;20409;-74
2023/05/08 07:11:54;;;;;;;22.73;18.50;;;17.00;99.90;;;;;;4944837;28;20050;-73
2023/05/08 07:14:20;;;;;;;25.83;20.10;;;17.10;99.90;;;;;;4929478;28;20038;-74
2023/05/08 07:16:47;;;;;;;25.60;20.48;;;17.20;99.90;;;;;;4949027;28;20037;-73
2023/05/08 07:19:13;;;;;;;26.60;21.52;;;17.40;99.90;;;;;;4931783;28;20434;-73
2023/05/08 07:21:39;;;;;;;24.98;20.17;;;17.50;99.90;;;;;;4955923;28;20893;-72
2023/05/08 07:24:06;;;;;;;28.10;22.75;;;17.60;99.90;;;;;;4936044;28;20812;-72
2023/05/08 07:26:32;;;;;;;22.13;17.77;;;17.70;99.90;;;;;;4951583;28;20034;-73
2023/05/08 07:28:59;;;;;;;23.17;18.55;;;17.90;99.90;;;;;;4916399;28;20713;-72
2023/05/08 07:31:25;;;;;;;25.80;21.33;;;18.10;99.90;;;;;;4932954;28;20041;-73
2023/05/08 07:33:52;;;;;;;28.50;22.27;;;18.40;99.90;;;;;;4945512;28;20031;-73
2023/05/08 07:36:18;;;;;;;24.33;18.85;;;18.70;99.90;;;;;;4950859;28;20045;-73
2023/05/08 07:38:44;;;;;;;23.77;19.00;;;19.00;99.90;;;;;;4950441;28;20038;-73
2023/05/08 07:41:11;;;;;;;19.55;17.25;;;19.30;99.90;;;;;;4948506;28;20610;-73
2023/05/08 07:43:38;;;;;;;25.35;19.73;;;19.60;99.90;;;;;;4940309;28;20047;-73
2023/05/08 07:46:04;;;;;;;27.05;21.75;;;19.90;99.90;;;;;;4952798;28;20426;-73
2023/05/08 07:48:31;;;;;;;23.98;19.85;;;20.10;99.90;;;;;;4939226;28;20053;-73
2023/05/08 07:50:57;;;;;;;24.52;18.50;;;20.20;99.90;;;;;;4928668;28;20077;-73
2023/05/08 07:53:23;;;;;;;27.30;21.45;;;20.20;99.90;;;;;;4932860;28;20053;-72
2023/05/08 07:55:50;;;;;;;22.45;18.80;;;20.30;99.90;;;;;;4926681;28;20046;-72
2023/05/08 07:58:16;;;;;;;26.17;21.08;;;20.20;99.90;;;;;;4950826;28;21820;-72
2023/05/08 08:00:43;;;;;;;22.40;18.90;;;20.10;99.90;;;;;;4944594;28;20343;-72
2023/05/08 08:03:09;;;;;;;33.58;25.33;;;20.00;99.90;;;;;;4918941;28;20054;-72
2023/05/08 08:05:36;;;;;;;25.13;18.08;;;20.00;99.90;;;;;;4931707;28;20048;-72
2023/05/08 08:08:02;;;;;;;23.98;18.63;;;19.90;99.90;;;;;;4973466;28;20046;-72
2023/05/08 08:10:28;;;;;;;22.30;18.73;;;19.80;99.90;;;;;;4930621;28;20037;-72
2023/05/08 08:12:55;;;;;;;25.73;18.67;;;19.70;99.90;;;;;;4964218;28;21125;-72
2023/05/08 08:15:21;;;;;;;24.30;20.33;;;19.80;99.90;;;;;;4958685;28;20168;-72
2023/05/08 08:17:47;;;;;;;25.00;19.50;;;19.80;99.90;;;;;;4947653;28;20046;-72
2023/05/08 08:20:14;;;;;;;26.23;20.73;;;19.80;99.90;;;;;;4946470;28;20038;-72
2023/05/08 08:22:40;;;;;;;27.65;23.25;;;19.90;99.90;;;;;;4947844;28;20065;-72
2023/05/08 08:25:07;;;;;;;33.05;25.45;;;20.00;99.90;;;;;;4945399;28;20030;-72
2023/05/08 08:27:33;;;;;;;35.95;29.75;;;20.10;99.90;;;;;;4943496;28;20518;-72
2023/05/08 08:30:00;;;;;;;27.27;22.10;;;20.10;99.90;;;;;;4953956;28;20026;-72
2023/05/08 08:32:26;;;;;;;27.45;21.52;;;20.10;99.90;;;;;;4949910;28;20033;-72
2023/05/08 08:34:52;;;;;;;24.20;19.23;;;20.10;99.90;;;;;;4925881;28;20033;-71
2023/05/08 08:37:18;;;;;;;25.60;20.40;;;20.10;99.90;;;;;;4931367;28;20050;-71
2023/05/08 08:39:45;;;;;;;28.55;22.42;;;20.10;99.90;;;;;;4944639;28;20053;-72
2023/05/08 08:42:11;;;;;;;25.10;20.33;;;20.00;99.90;;;;;;4948611;28;20045;-72
2023/05/08 08:44:37;;;;;;;23.70;19.20;;;19.90;99.90;;;;;;4942067;28;20502;-72
2023/05/08 08:47:05;;;;;;;26.23;21.75;;;19.90;99.90;;;;;;4954971;28;20034;-72
2023/05/08 08:49:35;;;;;;;24.17;18.92;;;19.90;99.90;;;;;;4956173;28;20042;-72
2023/05/08 08:52:19;;;;;;;26.52;21.27;;;19.90;99.90;;;;;;4951634;28;20034;-72
2023/05/08 08:54:47;;;;;;;27.45;20.77;;;19.90;99.90;;;;;;4943245;28;20041;-72
2023/05/08 08:57:15;;;;;;;31.50;26.75;;;20.10;99.90;;;;;;4949432;28;20057;-73
2023/05/08 08:59:43;;;;;;;31.25;26.05;;;20.30;99.90;;;;;;4931271;28;20374;-72
2023/05/08 09:02:11;;;;;;;27.65;22.52;;;20.50;99.90;;;;;;4915292;28;20054;-72
2023/05/08 09:04:37;;;;;;;29.10;22.15;;;20.60;99.90;;;;;;4929484;28;20506;-73
2023/05/08 09:07:04;;;;;;;30.75;24.58;;;20.70;99.90;;;;;;4949628;28;20034;-72
2023/05/08 09:09:34;;;;;;;27.92;21.50;;;20.80;99.90;;;;;;4953781;28;20034;-72
2023/05/08 09:12:01;;;;;;;31.25;25.25;;;20.80;99.90;;;;;;4937868;28;20050;-73
2023/05/08 09:14:27;;;;;;;23.10;18.02;;;20.80;99.90;;;;;;4937369;28;20156;-72
2023/05/08 09:16:53;;;;;;;20.38;16.88;;;20.70;99.90;;;;;;4934417;28;20042;-72
2023/05/08 09:19:20;;;;;;;24.52;21.83;;;20.80;99.90;;;;;;4951565;28;20034;-72
2023/05/08 09:21:48;;;;;;;24.00;19.77;;;20.90;99.90;;;;;;4950264;28;20052;-72
2023/05/08 09:24:14;;;;;;;37.33;31.27;;;21.10;99.90;;;;;;4951694;28;20046;-71
2023/05/08 09:26:41;;;;;;;20.02;17.90;;;21.30;99.90;;;;;;4951431;28;20045;-71
2023/05/08 09:29:15;;;;;;;22.38;19.88;;;21.30;99.90;;;;;;4931381;28;20041;-71
2023/05/08 09:31:44;;;;;;;32.15;25.85;;;21.40;99.90;;;;;;4949200;28;20034;-71
2023/05/08 09:34:26;;;;;;;22.10;18.48;;;21.50;99.90;;;;;;4968817;28;20038;-71
2023/05/08 09:37:09;;;;;;;15.88;14.00;;;21.60;99.90;;;;;;4954614;28;20030;-72
2023/05/08 09:39:35;;;;;;;28.30;24.08;;;21.70;99.90;;;;;;4945494;28;20037;-73
2023/05/08 09:42:03;;;;;;;25.98;20.65;;;21.90;99.90;;;;;;4944354;28;20046;-73
2023/05/08 09:44:44;;;;;;;31.67;25.85;;;22.10;99.90;;;;;;4941510;28;20108;-73
2023/05/08 09:47:22;;;;;;;22.38;17.88;;;22.30;99.90;;;;;;4949455;28;20039;-73
2023/05/08 09:50:01;;;;;;;25.92;23.23;;;22.30;99.90;;;;;;4945578;28;20510;-73
2023/05/08 09:52:29;;;;;;;20.52;16.85;;;22.40;99.90;;;;;;4951552;28;20040;-73
2023/05/08 09:54:58;;;;;;;23.75;20.25;;;22.40;99.90;;;;;;4950233;28;20034;-73
2023/05/08 09:57:29;;;;;;;16.20;13.73;;;22.60;99.90;;;;;;4959618;28;20034;-73
2023/05/08 10:00:11;;;;;;;32.10;28.70;;;22.80;99.90;;;;;;4947750;28;20038;-73
2023/05/08 10:02:52;;;;;;;26.08;22.00;;;23.00;99.90;;;;;;4930428;28;20043;-73
2023/05/08 10:05:24;;;;;;;25.25;21.20;;;23.10;99.90;;;;;;4943874;28;20033;-73
2023/05/08 10:07:51;;;;;;;27.65;23.25;;;23.30;99.90;;;;;;4964753;28;20034;-73
2023/05/08 10:10:29;;;;;;;31.80;28.15;;;23.50;99.90;;;;;;4961193;28;20030;-73
2023/05/08 10:12:57;;;;;;;26.92;23.38;;;23.80;99.90;;;;;;4951187;28;20049;-73
2023/05/08 10:15:34;;;;;;;30.00;26.67;;;23.90;99.90;;;;;;4934671;28;20603;-73
2023/05/08 10:18:06;;;;;;;24.05;21.13;;;24.00;99.90;;;;;;4944150;28;20042;-73
2023/05/08 10:20:35;;;;;;;30.02;26.77;;;24.10;99.90;;;;;;4952042;28;20037;-73
2023/05/08 10:23:02;;;;;;;21.27;18.92;;;24.10;99.90;;;;;;4935351;28;20743;-73
2023/05/08 10:25:33;;;;;;;21.67;19.48;;;24.30;99.90;;;;;;4946513;28;20031;-74
2023/05/08 10:28:15;;;;;;;19.80;17.77;;;24.50;99.90;;;;;;4952467;28;20045;-74
2023/05/08 10:30:47;;;;;;;19.52;17.63;;;24.80;99.90;;;;;;4947974;28;20034;-73
2023/05/08 10:33:16;;;;;;;20.95;18.83;;;25.00;99.90;;;;;;4949116;28;20513;-73
2023/05/08 10:35:44;;;;;;;23.58;21.25;;;25.30;99.90;;;;;;4935613;28;20037;-73
2023/05/08 10:38:10;;;;;;;23.88;21.38;;;25.70;99.90;;;;;;4943847;28;20046;-73
2023/05/08 10:40:37;;;;;;;23.20;20.83;;;26.10;99.90;;;;;;4952662;28;20050;-73
2023/05/08 10:43:06;;;;;;;23.30;20.92;;;26.70;99.90;;;;;;4935052;28;20041;-73
2023/05/08 10:45:33;;;;;;;21.83;19.63;;;27.00;99.90;;;;;;4944297;28;20030;-73
2023/05/08 10:48:27;;;;;;;24.27;21.83;;;27.00;99.90;;;;;;4950797;28;20049;-73
2023/05/08 10:50:57;;;;;;;24.38;21.88;;;26.70;99.90;;;;;;4942526;28;20054;-72
2023/05/08 10:53:44;;;;;;;18.85;16.88;;;26.20;99.90;;;;;;4949631;28;20030;-73
2023/05/08 10:56:11;;;;;;;21.95;19.85;;;25.70;99.90;;;;;;4949106;28;20052;-73
2023/05/08 10:58:40;;;;;;;24.67;22.30;;;25.30;99.90;;;;;;4939251;28;20047;-73
2023/05/08 11:01:06;;;;;;;27.42;24.50;;;25.00;99.90;;;;;;4953824;28;20049;-74
2023/05/08 11:03:59;;;;;;;27.48;24.58;;;24.80;99.90;;;;;;4957212;28;20045;-73
2023/05/08 11:06:47;;;;;;;22.67;20.27;;;24.60;99.90;;;;;;4933702;28;20042;-72
2023/05/08 11:09:40;;;;;;;17.98;16.15;;;24.40;99.90;;;;;;4948781;28;20049;-72
2023/05/08 11:12:10;;;;;;;;;;;24.20;99.90;;;;;;4945918;28;20061;-72
2023/05/08 11:14:40;;;;;;;14.32;12.95;;;23.80;99.90;;;;;;4942983;28;19917;-72
2023/05/08 11:17:08;;;;;;;17.65;15.95;;;23.60;99.90;;;;;;4948535;28;20116;-71
2023/05/08 11:19:35;;;;;;;25.42;22.95;;;23.20;99.90;;;;;;4950363;28;20029;-75
2023/05/08 11:22:22;;;;;;;21.42;19.27;;;22.60;99.90;;;;;;4952616;28;20046;-74
2023/05/08 11:24:53;;;;;;;44.08;29.27;;;22.00;99.90;;;;;;4940052;28;20042;-72
2023/05/08 11:27:36;;;;;;;20.38;18.40;;;21.40;99.90;;;;;;4968900;28;20042;-73
2023/05/08 11:30:33;;;;;;;17.45;15.80;;;20.80;99.90;;;;;;4944006;28;20034;-75
2023/05/08 11:33:03;;;;;;;26.98;24.48;;;20.50;99.90;;;;;;4950085;28;20045;-74
2023/05/08 11:35:53;;;;;;;21.40;19.38;;;20.10;99.90;;;;;;4912793;28;20042;-72
2023/05/08 11:38:26;;;;;;;25.63;23.23;;;19.90;99.90;;;;;;4950449;28;20035;-72
2023/05/08 11:41:01;;;;;;;24.15;21.77;;;19.90;99.90;;;;;;4913582;28;20079;-72
2023/05/08 11:43:36;;;;;;;29.45;26.70;;;19.90;99.90;;;;;;4959158;28;20035;-73
2023/05/08 11:46:13;;;;;;;27.20;24.58;;;19.90;99.90;;;;;;4953390;28;21394;-74
2023/05/08 11:48:40;;;;;;;31.52;28.50;;;19.90;99.90;;;;;;4956396;28;20038;-75
2023/05/08 11:51:06;;;;;;;17.70;15.18;;;19.90;99.90;;;;;;4930593;28;20045;-75
2023/05/08 11:53:35;;;;;;;13.38;10.68;;;19.90;99.90;;;;;;4931768;28;20038;-73
2023/05/08 11:56:02;;;;;;;13.90;12.60;;;20.00;99.90;;;;;;4945896;28;21116;-76
2023/05/08 11:58:28;;;;;;;22.98;20.77;;;19.90;99.90;;;;;;4948253;28;20038;-75
2023/05/08 12:00:54;;;;;;;25.30;22.75;;;19.90;99.90;;;;;;4925821;28;20038;-75
2023/05/08 12:03:23;;;;;;;37.47;33.72;;;19.80;99.90;;;;;;4948852;28;20030;-75
2023/05/08 12:05:55;;;;;;;44.10;39.72;;;19.70;99.90;;;;;;4952295;28;20039;-76
2023/05/08 12:08:21;;;;;;;30.67;27.60;;;19.70;99.90;;;;;;4958054;28;20057;-75
2023/05/08 12:10:51;;;;;;;29.48;26.58;;;19.70;99.90;;;;;;4949869;28;20130;-74
2023/05/08 12:13:22;;;;;;;32.45;29.35;;;19.80;99.90;;;;;;4932657;28;20089;-74
2023/05/08 12:15:54;;;;;;;30.02;27.17;;;20.10;99.90;;;;;;4941272;28;20034;-74
2023/05/08 12:18:22;;;;;;;39.95;35.97;;;20.30;99.90;;;;;;4947747;28;20313;-73
2023/05/08 12:20:56;;;;;;;44.15;39.83;;;20.40;99.90;;;;;;4943354;28;20405;-73
2023/05/08 12:23:24;;;;;;;38.83;34.95;;;20.40;99.90;;;;;;4964934;28;20034;-73
2023/05/08 12:25:55;;;;;;;38.78;35.17;;;20.40;99.90;;;;;;4942269;28;21316;-73
2023/05/08 12:28:21;;;;;;;43.22;38.75;;;20.40;99.90;;;;;;4958043;28;20038;-72
2023/05/08 12:30:48;;;;;;;38.60;35.00;;;20.20;99.90;;;;;;4967947;28;21064;-72
2023/05/08 12:33:15;;;;;;;44.63;40.22;;;20.10;99.90;;;;;;4953283;28;20418;-72
2023/05/08 12:35:42;;;;;;;39.40;35.65;;;20.10;99.90;;;;;;4942396;28;20034;-72
2023/05/08 12:38:10;;;;;;;38.78;35.03;;;20.00;99.90;;;;;;4948057;28;20961;-72
2023/05/08 12:40:42;;;;;;;53.53;48.15;;;20.00;99.90;;;;;;4941304;28;20046;-73
2023/05/08 12:43:09;;;;;;;41.13;37.15;;;20.00;99.90;;;;;;4947006;28;20062;-73